sensor_id;sensor_type;location;lat;lon;timestamp;temperature;humidity
837;DHT22;400;53.550;9.932;2023-06-05T00:01:40;15.30;99.90
837;DHT22;400;53.550;9.932;2023-06-05T00:04:07;14.90;99.90
837;DHT22;400;53.550;9.932;2023-06-05T00:06:34;14.80;99.90
837;DHT22;400;53.550;9.932;2023-06-05T00:09:03;14.70;99.90
837;DHT22;400;53.550;9.932;2023-06-05T00:11:31;14.80;99.90
837;DHT22;400;53.550;9.932;2023-06-05T00:13:58;14.80;99.90
837;DHT22;400;53.550;9.932;2023-06-05T00:16:25;14.80;99.90
837;DHT22;400;53.550;9.932;2023-06-05T00:18:52;14.70;99.90
837;DHT22;400;53.550;9.932;2023-06-05T00:21:19;14.70;99.90
837;DHT22;400;53.550;9.932;2023-06-05T00:23:46;14.70;99.90
837;DHT22;400;53.550;9.932;2023-06-05T00:26:13;14.80;99.90
837;DHT22;400;53.550;9.932;2023-06-05T00:28:41;14.60;99.90
837;DHT22;400;53.550;9.932;2023-06-05T00:31:08;14.60;99.90
837;DHT22;400;53.550;9.932;2023-06-05T00:33:35;14.60;99.90
837;DHT22;400;53.550;9.932;2023-06-05T00:36:02;14.60;99.90
837;DHT22;400;53.550;9.932;2023-06-05T00:38:28;14.60;99.90
837;DHT22;400;53.550;9.932;2023-06-05T00:40:56;14.60;99.90
837;DHT22;400;53.550;9.932;2023-06-05T00:43:23;14.60;99.90
837;DHT22;400;53.550;9.932;2023-06-05T00:45:57;14.50;99.90
837;DHT22;400;53.550;9.932;2023-06-05T00:48:25;14.40;99.90
837;DHT22;400;53.550;9.932;2023-06-05T00:50:52;14.40;99.90
837;DHT22;400;53.550;9.932;2023-06-05T00:53:19;14.30;99.90
837;DHT22;400;53.550;9.932;2023-06-05T00:55:46;14.30;99.90
837;DHT22;400;53.550;9.932;2023-06-05T00:58:14;14.20;99.90
837;DHT22;400;53.550;9.932;2023-06-05T01:00:42;14.30;99.90
837;DHT22;400;53.550;9.932;2023-06-05T01:03:10;14.30;99.90
837;DHT22;400;53.550;9.932;2023-06-05T01:05:39;14.30;99.90
837;DHT22;400;53.550;9.932;2023-06-05T01:08:05;14.20;99.90
837;DHT22;400;53.550;9.932;2023-06-05T01:10:34;14.20;99.90
837;DHT22;400;53.550;9.932;2023-06-05T01:13:06;14.10;99.90
837;DHT22;400;53.550;9.932;2023-06-05T01:15:38;14.00;99.90
837;DHT22;400;53.550;9.932;2023-06-05T01:18:08;14.10;99.90
837;DHT22;400;53.550;9.932;2023-06-05T01:20:39;14.00;99.90
837;DHT22;400;53.550;9.932;2023-06-05T01:23:08;14.00;99.90
837;DHT22;400;53.550;9.932;2023-06-05T01:25:36;13.90;99.90
837;DHT22;400;53.550;9.932;2023-06-05T01:28:10;14.00;99.90
837;DHT22;400;53.550;9.932;2023-06-05T01:30:44;14.00;99.90
837;DHT22;400;53.550;9.932;2023-06-05T01:33:15;13.90;99.90
837;DHT22;400;53.550;9.932;2023-06-05T01:35:46;13.80;99.90
837;DHT22;400;53.550;9.932;2023-06-05T01:38:19;13.90;99.90
837;DHT22;400;53.550;9.932;2023-06-05T01:40:47;13.80;99.90
837;DHT22;400;53.550;9.932;2023-06-05T01:43:17;13.70;99.90
837;DHT22;400;53.550;9.932;2023-06-05T01:45:45;13.60;99.90
837;DHT22;400;53.550;9.932;2023-06-05T01:48:14;13.60;99.90
837;DHT22;400;53.550;9.932;2023-06-05T01:50:41;13.60;99.90
837;DHT22;400;53.550;9.932;2023-06-05T01:53:08;13.60;99.90
837;DHT22;400;53.550;9.932;2023-06-05T01:55:38;13.70;99.90
837;DHT22;400;53.550;9.932;2023-06-05T01:58:07;13.80;99.90
837;DHT22;400;53.550;9.932;2023-06-05T02:00:34;13.70;99.90
837;DHT22;400;53.550;9.932;2023-06-05T02:03:02;13.70;99.90
837;DHT22;400;53.550;9.932;2023-06-05T02:05:29;13.70;99.90
837;DHT22;400;53.550;9.932;2023-06-05T02:07:56;13.60;99.90
837;DHT22;400;53.550;9.932;2023-06-05T02:10:24;13.60;99.90
837;DHT22;400;53.550;9.932;2023-06-05T02:12:52;13.60;99.90
837;DHT22;400;53.550;9.932;2023-06-05T02:15:20;13.60;99.90
837;DHT22;400;53.550;9.932;2023-06-05T02:17:48;13.70;99.90
837;DHT22;400;53.550;9.932;2023-06-05T02:20:24;13.50;99.90
837;DHT22;400;53.550;9.932;2023-06-05T02:22:52;13.50;99.90
837;DHT22;400;53.550;9.932;2023-06-05T02:25:20;13.50;99.90
837;DHT22;400;53.550;9.932;2023-06-05T02:27:52;13.50;99.90
837;DHT22;400;53.550;9.932;2023-06-05T02:30:20;13.40;99.90
837;DHT22;400;53.550;9.932;2023-06-05T02:32:47;13.30;99.90
837;DHT22;400;53.550;9.932;2023-06-05T02:35:14;13.30;99.90
837;DHT22;400;53.550;9.932;2023-06-05T02:37:43;13.30;99.90
837;DHT22;400;53.550;9.932;2023-06-05T02:40:13;13.30;99.90
837;DHT22;400;53.550;9.932;2023-06-05T02:42:40;13.30;99.90
837;DHT22;400;53.550;9.932;2023-06-05T02:45:13;13.30;99.90
837;DHT22;400;53.550;9.932;2023-06-05T02:47:41;13.30;99.90
837;DHT22;400;53.550;9.932;2023-06-05T02:50:08;13.30;99.90
837;DHT22;400;53.550;9.932;2023-06-05T02:52:34;13.30;99.90
837;DHT22;400;53.550;9.932;2023-06-05T02:55:05;13.20;99.90
837;DHT22;400;53.550;9.932;2023-06-05T02:57:33;13.20;99.90
837;DHT22;400;53.550;9.932;2023-06-05T03:00:08;13.10;99.90
837;DHT22;400;53.550;9.932;2023-06-05T03:02:36;13.10;99.90
837;DHT22;400;53.550;9.932;2023-06-05T03:05:06;13.10;99.90
837;DHT22;400;53.550;9.932;2023-06-05T03:07:37;13.10;99.90
837;DHT22;400;53.550;9.932;2023-06-05T03:10:10;13.10;99.90
837;DHT22;400;53.550;9.932;2023-06-05T03:12:44;13.10;99.90
837;DHT22;400;53.550;9.932;2023-06-05T03:15:18;13.10;99.90
837;DHT22;400;53.550;9.932;2023-06-05T03:17:57;13.10;99.90
837;DHT22;400;53.550;9.932;2023-06-05T03:20:27;13.00;99.90
837;DHT22;400;53.550;9.932;2023-06-05T03:22:58;13.00;99.90
837;DHT22;400;53.550;9.932;2023-06-05T03:25:27;13.00;99.90
837;DHT22;400;53.550;9.932;2023-06-05T03:27:55;13.10;99.90
837;DHT22;400;53.550;9.932;2023-06-05T03:30:25;13.00;99.90
837;DHT22;400;53.550;9.932;2023-06-05T03:32:58;13.00;99.90
837;DHT22;400;53.550;9.932;2023-06-05T03:35:30;13.00;99.90
837;DHT22;400;53.550;9.932;2023-06-05T03:37:58;13.00;99.90
837;DHT22;400;53.550;9.932;2023-06-05T03:40:25;12.90;99.90
837;DHT22;400;53.550;9.932;2023-06-05T03:42:52;12.90;99.90
837;DHT22;400;53.550;9.932;2023-06-05T03:45:22;13.00;99.90
837;DHT22;400;53.550;9.932;2023-06-05T03:47:52;12.90;99.90
837;DHT22;400;53.550;9.932;2023-06-05T03:50:21;12.90;99.90
837;DHT22;400;53.550;9.932;2023-06-05T03:52:49;12.90;99.90
837;DHT22;400;53.550;9.932;2023-06-05T03:55:18;12.90;99.90
837;DHT22;400;53.550;9.932;2023-06-05T03:57:45;12.90;99.90
837;DHT22;400;53.550;9.932;2023-06-05T04:00:13;12.80;99.90
837;DHT22;400;53.550;9.932;2023-06-05T04:02:42;12.80;99.90
837;DHT22;400;53.550;9.932;2023-06-05T04:05:09;12.80;99.90
837;DHT22;400;53.550;9.932;2023-06-05T04:07:39;12.80;99.90
837;DHT22;400;53.550;9.932;2023-06-05T04:10:06;12.90;99.90
837;DHT22;400;53.550;9.932;2023-06-05T04:12:33;12.90;99.90
837;DHT22;400;53.550;9.932;2023-06-05T04:15:00;12.80;99.90
837;DHT22;400;53.550;9.932;2023-06-05T04:17:28;12.80;99.90
837;DHT22;400;53.550;9.932;2023-06-05T04:19:55;12.90;99.90
837;DHT22;400;53.550;9.932;2023-06-05T04:22:22;12.90;99.90
837;DHT22;400;53.550;9.932;2023-06-05T04:24:50;12.90;99.90
837;DHT22;400;53.550;9.932;2023-06-05T04:27:18;13.00;99.90
837;DHT22;400;53.550;9.932;2023-06-05T04:29:45;13.00;99.90
837;DHT22;400;53.550;9.932;2023-06-05T04:32:13;13.10;99.90
837;DHT22;400;53.550;9.932;2023-06-05T04:34:43;13.10;99.90
837;DHT22;400;53.550;9.932;2023-06-05T04:37:16;13.20;99.90
837;DHT22;400;53.550;9.932;2023-06-05T04:39:45;13.20;99.90
837;DHT22;400;53.550;9.932;2023-06-05T04:42:14;13.30;99.90
837;DHT22;400;53.550;9.932;2023-06-05T04:44:47;13.40;99.90
837;DHT22;400;53.550;9.932;2023-06-05T04:47:24;13.30;99.90
837;DHT22;400;53.550;9.932;2023-06-05T04:49:53;13.40;99.90
837;DHT22;400;53.550;9.932;2023-06-05T04:52:24;13.50;99.90
837;DHT22;400;53.550;9.932;2023-06-05T04:54:58;13.60;99.90
837;DHT22;400;53.550;9.932;2023-06-05T04:57:32;13.60;99.90
837;DHT22;400;53.550;9.932;2023-06-05T05:00:06;13.60;99.90
837;DHT22;400;53.550;9.932;2023-06-05T05:02:40;13.50;99.90
837;DHT22;400;53.550;9.932;2023-06-05T05:05:13;13.60;99.90
837;DHT22;400;53.550;9.932;2023-06-05T05:07:47;13.60;99.90
837;DHT22;400;53.550;9.932;2023-06-05T05:10:20;13.70;99.90
837;DHT22;400;53.550;9.932;2023-06-05T05:12:54;13.80;99.90
837;DHT22;400;53.550;9.932;2023-06-05T05:15:30;13.90;99.90
837;DHT22;400;53.550;9.932;2023-06-05T05:18:00;13.90;99.90
837;DHT22;400;53.550;9.932;2023-06-05T05:20:29;14.00;99.90
837;DHT22;400;53.550;9.932;2023-06-05T05:22:58;13.90;99.90
837;DHT22;400;53.550;9.932;2023-06-05T05:25:25;14.00;99.90
837;DHT22;400;53.550;9.932;2023-06-05T05:27:54;14.00;99.90
837;DHT22;400;53.550;9.932;2023-06-05T05:30:21;14.10;99.90
837;DHT22;400;53.550;9.932;2023-06-05T05:32:48;14.10;99.90
837;DHT22;400;53.550;9.932;2023-06-05T05:35:15;14.30;99.90
837;DHT22;400;53.550;9.932;2023-06-05T05:37:43;14.30;99.90
837;DHT22;400;53.550;9.932;2023-06-05T05:40:16;14.30;99.90
837;DHT22;400;53.550;9.932;2023-06-05T05:42:48;14.40;99.90
837;DHT22;400;53.550;9.932;2023-06-05T05:45:25;14.40;99.90
837;DHT22;400;53.550;9.932;2023-06-05T05:47:56;14.50;99.90
837;DHT22;400;53.550;9.932;2023-06-05T05:50:34;14.50;99.90
837;DHT22;400;53.550;9.932;2023-06-05T05:53:03;14.60;99.90
837;DHT22;400;53.550;9.932;2023-06-05T05:55:29;14.70;99.90
837;DHT22;400;53.550;9.932;2023-06-05T05:57:57;14.70;99.90
837;DHT22;400;53.550;9.932;2023-06-05T06:00:26;14.70;99.90
837;DHT22;400;53.550;9.932;2023-06-05T06:02:56;14.70;99.90
837;DHT22;400;53.550;9.932;2023-06-05T06:05:29;14.80;99.90
837;DHT22;400;53.550;9.932;2023-06-05T06:07:59;14.90;99.90
837;DHT22;400;53.550;9.932;2023-06-05T06:10:29;14.90;99.90
837;DHT22;400;53.550;9.932;2023-06-05T06:12:58;15.00;99.90
837;DHT22;400;53.550;9.932;2023-06-05T06:15:27;15.00;99.90
837;DHT22;400;53.550;9.932;2023-06-05T06:17:54;15.10;99.90
837;DHT22;400;53.550;9.932;2023-06-05T06:20:23;15.00;99.90
837;DHT22;400;53.550;9.932;2023-06-05T06:22:51;15.00;99.90
837;DHT22;400;53.550;9.932;2023-06-05T06:25:21;15.10;99.90
837;DHT22;400;53.550;9.932;2023-06-05T06:27:51;15.20;99.90
837;DHT22;400;53.550;9.932;2023-06-05T06:30:19;15.20;99.90
837;DHT22;400;53.550;9.932;2023-06-05T06:32:48;15.20;99.90
837;DHT22;400;53.550;9.932;2023-06-05T06:35:16;15.30;99.90
837;DHT22;400;53.550;9.932;2023-06-05T06:37:45;15.40;99.90
837;DHT22;400;53.550;9.932;2023-06-05T06:40:14;15.30;99.90
837;DHT22;400;53.550;9.932;2023-06-05T06:42:43;15.40;99.90
837;DHT22;400;53.550;9.932;2023-06-05T06:45:14;15.40;99.90
837;DHT22;400;53.550;9.932;2023-06-05T06:47:44;15.50;99.90
837;DHT22;400;53.550;9.932;2023-06-05T06:50:24;15.70;99.90
837;DHT22;400;53.550;9.932;2023-06-05T06:52:57;15.70;99.90
837;DHT22;400;53.550;9.932;2023-06-05T06:55:32;15.80;99.90
837;DHT22;400;53.550;9.932;2023-06-05T06:58:06;15.80;99.90
837;DHT22;400;53.550;9.932;2023-06-05T07:00:39;15.80;99.90
837;DHT22;400;53.550;9.932;2023-06-05T07:03:08;15.90;99.90
837;DHT22;400;53.550;9.932;2023-06-05T07:05:38;15.90;99.90
837;DHT22;400;53.550;9.932;2023-06-05T07:08:05;16.00;99.90
837;DHT22;400;53.550;9.932;2023-06-05T07:10:32;16.10;99.90
837;DHT22;400;53.550;9.932;2023-06-05T07:12:59;16.20;99.90
837;DHT22;400;53.550;9.932;2023-06-05T07:15:29;16.20;99.90
837;DHT22;400;53.550;9.932;2023-06-05T07:18:04;16.20;99.90
837;DHT22;400;53.550;9.932;2023-06-05T07:20:32;16.30;99.90
837;DHT22;400;53.550;9.932;2023-06-05T07:23:04;16.40;99.90
837;DHT22;400;53.550;9.932;2023-06-05T07:25:32;16.40;99.90
837;DHT22;400;53.550;9.932;2023-06-05T07:28:01;16.40;99.90
837;DHT22;400;53.550;9.932;2023-06-05T07:30:29;16.50;99.90
837;DHT22;400;53.550;9.932;2023-06-05T07:32:56;16.50;99.90
837;DHT22;400;53.550;9.932;2023-06-05T07:35:25;16.60;99.90
837;DHT22;400;53.550;9.932;2023-06-05T07:37:53;16.60;99.90
837;DHT22;400;53.550;9.932;2023-06-05T07:40:21;16.70;99.90
837;DHT22;400;53.550;9.932;2023-06-05T07:42:50;16.70;99.90
837;DHT22;400;53.550;9.932;2023-06-05T07:45:21;16.80;99.90
837;DHT22;400;53.550;9.932;2023-06-05T07:47:51;16.80;99.90
837;DHT22;400;53.550;9.932;2023-06-05T07:50:18;16.90;99.90
837;DHT22;400;53.550;9.932;2023-06-05T07:52:45;16.90;99.90
837;DHT22;400;53.550;9.932;2023-06-05T07:55:12;17.00;99.90
837;DHT22;400;53.550;9.932;2023-06-05T07:57:40;17.10;99.90
837;DHT22;400;53.550;9.932;2023-06-05T08:00:08;17.10;99.90
837;DHT22;400;53.550;9.932;2023-06-05T08:02:36;17.10;99.90
837;DHT22;400;53.550;9.932;2023-06-05T08:05:05;17.20;99.90
837;DHT22;400;53.550;9.932;2023-06-05T08:07:32;17.20;99.90
837;DHT22;400;53.550;9.932;2023-06-05T08:09:59;17.30;99.90
837;DHT22;400;53.550;9.932;2023-06-05T08:12:26;17.40;99.90
837;DHT22;400;53.550;9.932;2023-06-05T08:14:54;17.40;99.90
837;DHT22;400;53.550;9.932;2023-06-05T08:17:21;17.40;99.90
837;DHT22;400;53.550;9.932;2023-06-05T08:19:49;17.40;99.90
837;DHT22;400;53.550;9.932;2023-06-05T08:22:16;17.50;99.90
837;DHT22;400;53.550;9.932;2023-06-05T08:24:44;17.60;99.90
837;DHT22;400;53.550;9.932;2023-06-05T08:27:16;17.60;99.90
837;DHT22;400;53.550;9.932;2023-06-05T08:29:42;17.70;99.90
837;DHT22;400;53.550;9.932;2023-06-05T08:32:10;17.80;99.90
837;DHT22;400;53.550;9.932;2023-06-05T08:34:40;17.80;99.90
837;DHT22;400;53.550;9.932;2023-06-05T08:37:13;17.90;99.90
837;DHT22;400;53.550;9.932;2023-06-05T08:39:40;18.00;99.90
837;DHT22;400;53.550;9.932;2023-06-05T08:42:08;18.00;99.90
837;DHT22;400;53.550;9.932;2023-06-05T08:44:39;18.00;99.90
837;DHT22;400;53.550;9.932;2023-06-05T08:47:12;18.10;99.90
837;DHT22;400;53.550;9.932;2023-06-05T08:49:41;18.20;99.90
837;DHT22;400;53.550;9.932;2023-06-05T08:52:09;18.30;99.90
837;DHT22;400;53.550;9.932;2023-06-05T08:54:38;18.30;99.90
837;DHT22;400;53.550;9.932;2023-06-05T08:57:07;18.30;99.90
837;DHT22;400;53.550;9.932;2023-06-05T08:59:34;18.50;99.90
837;DHT22;400;53.550;9.932;2023-06-05T09:02:01;18.50;99.90
837;DHT22;400;53.550;9.932;2023-06-05T09:04:30;18.60;99.90
837;DHT22;400;53.550;9.932;2023-06-05T09:06:57;18.60;99.90
837;DHT22;400;53.550;9.932;2023-06-05T09:09:24;18.70;99.90
837;DHT22;400;53.550;9.932;2023-06-05T09:12:01;18.70;99.90
837;DHT22;400;53.550;9.932;2023-06-05T09:14:28;18.80;99.90
837;DHT22;400;53.550;9.932;2023-06-05T09:16:59;18.80;99.90
837;DHT22;400;53.550;9.932;2023-06-05T09:19:37;18.90;99.90
837;DHT22;400;53.550;9.932;2023-06-05T09:22:06;19.00;99.90
837;DHT22;400;53.550;9.932;2023-06-05T09:24:34;19.00;99.90
837;DHT22;400;53.550;9.932;2023-06-05T09:27:03;19.10;99.90
837;DHT22;400;53.550;9.932;2023-06-05T09:29:32;19.20;99.90
837;DHT22;400;53.550;9.932;2023-06-05T09:32:02;19.30;99.90
837;DHT22;400;53.550;9.932;2023-06-05T09:34:30;19.30;99.90
837;DHT22;400;53.550;9.932;2023-06-05T09:36:59;19.30;99.90
837;DHT22;400;53.550;9.932;2023-06-05T09:39:29;19.40;99.90
837;DHT22;400;53.550;9.932;2023-06-05T09:41:58;19.40;99.90
837;DHT22;400;53.550;9.932;2023-06-05T09:44:27;19.50;99.90
837;DHT22;400;53.550;9.932;2023-06-05T09:46:58;19.50;99.90
837;DHT22;400;53.550;9.932;2023-06-05T09:49:28;19.60;99.90
837;DHT22;400;53.550;9.932;2023-06-05T09:52:01;19.60;99.90
837;DHT22;400;53.550;9.932;2023-06-05T09:54:30;19.60;99.90
837;DHT22;400;53.550;9.932;2023-06-05T09:56:59;19.70;99.90
837;DHT22;400;53.550;9.932;2023-06-05T09:59:28;19.70;99.90
837;DHT22;400;53.550;9.932;2023-06-05T10:01:59;19.80;99.90
837;DHT22;400;53.550;9.932;2023-06-05T10:04:28;19.80;99.90
837;DHT22;400;53.550;9.932;2023-06-05T10:07:00;20.00;99.90
837;DHT22;400;53.550;9.932;2023-06-05T10:09:30;20.20;99.90
837;DHT22;400;53.550;9.932;2023-06-05T10:11:59;20.20;99.90
837;DHT22;400;53.550;9.932;2023-06-05T10:14:27;20.20;99.90
837;DHT22;400;53.550;9.932;2023-06-05T10:16:54;20.30;99.90
837;DHT22;400;53.550;9.932;2023-06-05T10:19:22;20.30;99.90
837;DHT22;400;53.550;9.932;2023-06-05T10:21:51;20.30;99.90
837;DHT22;400;53.550;9.932;2023-06-05T10:24:22;20.30;99.90
837;DHT22;400;53.550;9.932;2023-06-05T10:30:09;20.40;99.90
837;DHT22;400;53.550;9.932;2023-06-05T10:32:53;20.50;99.70
837;DHT22;400;53.550;9.932;2023-06-05T10:35:33;20.50;99.10
837;DHT22;400;53.550;9.932;2023-06-05T10:38:14;20.60;98.90
837;DHT22;400;53.550;9.932;2023-06-05T10:40:48;20.60;98.50
837;DHT22;400;53.550;9.932;2023-06-05T10:43:27;20.70;98.50
837;DHT22;400;53.550;9.932;2023-06-05T10:45:57;20.70;97.90
837;DHT22;400;53.550;9.932;2023-06-05T10:51:36;20.90;98.20
837;DHT22;400;53.550;9.932;2023-06-05T10:54:07;21.00;98.30
837;DHT22;400;53.550;9.932;2023-06-05T10:56:58;21.00;97.90
837;DHT22;400;53.550;9.932;2023-06-05T10:59:31;21.20;97.20
837;DHT22;400;53.550;9.932;2023-06-05T11:02:24;21.30;98.00
837;DHT22;400;53.550;9.932;2023-06-05T11:05:05;21.30;98.00
837;DHT22;400;53.550;9.932;2023-06-05T11:07:35;21.30;97.80
837;DHT22;400;53.550;9.932;2023-06-05T11:10:18;21.30;97.70
837;DHT22;400;53.550;9.932;2023-06-05T11:13:06;21.40;97.60
837;DHT22;400;53.550;9.932;2023-06-05T11:15:37;21.40;97.10
837;DHT22;400;53.550;9.932;2023-06-05T11:18:33;21.40;96.20
837;DHT22;400;53.550;9.932;2023-06-05T11:21:04;21.50;96.10
837;DHT22;400;53.550;9.932;2023-06-05T11:23:32;21.70;95.50
837;DHT22;400;53.550;9.932;2023-06-05T11:29:17;21.80;95.70
837;DHT22;400;53.550;9.932;2023-06-05T11:31:52;21.90;95.40
837;DHT22;400;53.550;9.932;2023-06-05T11:34:18;22.00;94.50
837;DHT22;400;53.550;9.932;2023-06-05T11:36:48;22.10;94.70
837;DHT22;400;53.550;9.932;2023-06-05T11:39:18;22.20;94.30
837;DHT22;400;53.550;9.932;2023-06-05T11:41:48;22.30;94.20
837;DHT22;400;53.550;9.932;2023-06-05T11:44:30;22.30;94.60
837;DHT22;400;53.550;9.932;2023-06-05T11:46:58;22.40;94.60
837;DHT22;400;53.550;9.932;2023-06-05T11:49:28;22.50;94.10
837;DHT22;400;53.550;9.932;2023-06-05T11:51:56;22.60;93.90
837;DHT22;400;53.550;9.932;2023-06-05T11:54:25;22.60;93.80
837;DHT22;400;53.550;9.932;2023-06-05T11:56:58;22.70;93.20
837;DHT22;400;53.550;9.932;2023-06-05T11:59:41;22.80;92.10
837;DHT22;400;53.550;9.932;2023-06-05T12:02:13;22.90;92.00
837;DHT22;400;53.550;9.932;2023-06-05T12:04:40;23.00;92.20
837;DHT22;400;53.550;9.932;2023-06-05T12:07:09;23.10;92.10
837;DHT22;400;53.550;9.932;2023-06-05T12:09:38;23.10;91.80
837;DHT22;400;53.550;9.932;2023-06-05T12:12:06;23.30;90.90
837;DHT22;400;53.550;9.932;2023-06-05T12:14:36;23.40;90.30
837;DHT22;400;53.550;9.932;2023-06-05T12:17:11;23.50;88.70
837;DHT22;400;53.550;9.932;2023-06-05T12:19:39;23.60;90.00
837;DHT22;400;53.550;9.932;2023-06-05T12:22:07;23.70;89.20
837;DHT22;400;53.550;9.932;2023-06-05T12:24:35;23.60;89.30
837;DHT22;400;53.550;9.932;2023-06-05T12:27:03;23.70;89.00
837;DHT22;400;53.550;9.932;2023-06-05T12:29:34;23.80;88.70
837;DHT22;400;53.550;9.932;2023-06-05T12:32:03;23.80;87.40
837;DHT22;400;53.550;9.932;2023-06-05T12:34:52;23.90;86.40
837;DHT22;400;53.550;9.932;2023-06-05T12:37:23;24.00;85.80
837;DHT22;400;53.550;9.932;2023-06-05T12:39:57;24.00;84.50
837;DHT22;400;53.550;9.932;2023-06-05T12:42:25;24.00;84.00
837;DHT22;400;53.550;9.932;2023-06-05T12:44:53;24.10;83.90
837;DHT22;400;53.550;9.932;2023-06-05T12:47:20;24.20;83.70
837;DHT22;400;53.550;9.932;2023-06-05T12:49:47;24.20;82.30
837;DHT22;400;53.550;9.932;2023-06-05T12:52:16;24.30;80.60
837;DHT22;400;53.550;9.932;2023-06-05T12:54:46;24.30;79.30
837;DHT22;400;53.550;9.932;2023-06-05T12:57:19;24.30;77.60
837;DHT22;400;53.550;9.932;2023-06-05T12:59:51;24.40;78.30
837;DHT22;400;53.550;9.932;2023-06-05T13:02:25;24.50;77.60
837;DHT22;400;53.550;9.932;2023-06-05T13:04:58;24.70;77.30
837;DHT22;400;53.550;9.932;2023-06-05T13:07:38;24.70;76.80
837;DHT22;400;53.550;9.932;2023-06-05T13:10:11;24.80;74.20
837;DHT22;400;53.550;9.932;2023-06-05T13:12:43;24.80;74.10
837;DHT22;400;53.550;9.932;2023-06-05T13:15:12;24.80;73.90
837;DHT22;400;53.550;9.932;2023-06-05T13:17:39;24.90;74.50
837;DHT22;400;53.550;9.932;2023-06-05T13:20:07;24.90;74.90
837;DHT22;400;53.550;9.932;2023-06-05T13:22:38;25.00;75.60
837;DHT22;400;53.550;9.932;2023-06-05T13:25:06;25.20;75.60
837;DHT22;400;53.550;9.932;2023-06-05T13:27:33;25.30;75.00
837;DHT22;400;53.550;9.932;2023-06-05T13:30:01;25.30;74.20
837;DHT22;400;53.550;9.932;2023-06-05T13:32:31;25.40;73.70
837;DHT22;400;53.550;9.932;2023-06-05T13:34:59;25.50;73.80
837;DHT22;400;53.550;9.932;2023-06-05T13:37:26;25.50;73.90
837;DHT22;400;53.550;9.932;2023-06-05T13:39:59;25.50;73.50
837;DHT22;400;53.550;9.932;2023-06-05T13:42:32;25.50;72.80
837;DHT22;400;53.550;9.932;2023-06-05T13:45:06;25.60;74.10
837;DHT22;400;53.550;9.932;2023-06-05T13:47:37;25.60;74.90
837;DHT22;400;53.550;9.932;2023-06-05T13:50:11;25.50;76.00
837;DHT22;400;53.550;9.932;2023-06-05T13:52:45;25.40;72.70
837;DHT22;400;53.550;9.932;2023-06-05T13:55:21;25.30;74.60
837;DHT22;400;53.550;9.932;2023-06-05T13:57:51;24.90;75.20
837;DHT22;400;53.550;9.932;2023-06-05T14:00:27;24.70;76.80
837;DHT22;400;53.550;9.932;2023-06-05T14:02:54;24.70;78.10
837;DHT22;400;53.550;9.932;2023-06-05T14:05:21;24.60;77.90
837;DHT22;400;53.550;9.932;2023-06-05T14:07:48;24.50;77.90
837;DHT22;400;53.550;9.932;2023-06-05T14:10:17;24.50;78.70
837;DHT22;400;53.550;9.932;2023-06-05T14:12:44;24.40;78.00
837;DHT22;400;53.550;9.932;2023-06-05T14:15:12;24.30;77.50
837;DHT22;400;53.550;9.932;2023-06-05T14:17:40;24.20;78.50
837;DHT22;400;53.550;9.932;2023-06-05T14:20:08;24.20;78.60
837;DHT22;400;53.550;9.932;2023-06-05T14:22:36;24.20;78.30
837;DHT22;400;53.550;9.932;2023-06-05T14:25:04;24.10;78.90
837;DHT22;400;53.550;9.932;2023-06-05T14:27:33;24.10;78.40
837;DHT22;400;53.550;9.932;2023-06-05T14:30:00;24.00;77.80
837;DHT22;400;53.550;9.932;2023-06-05T14:32:28;23.90;78.20
837;DHT22;400;53.550;9.932;2023-06-05T14:34:54;23.90;78.00
837;DHT22;400;53.550;9.932;2023-06-05T14:37:22;24.00;77.70
837;DHT22;400;53.550;9.932;2023-06-05T14:39:51;24.00;78.70
837;DHT22;400;53.550;9.932;2023-06-05T14:42:22;24.10;78.30
837;DHT22;400;53.550;9.932;2023-06-05T14:44:52;24.10;78.10
837;DHT22;400;53.550;9.932;2023-06-05T14:47:19;24.10;78.20
837;DHT22;400;53.550;9.932;2023-06-05T14:49:48;24.20;78.60
837;DHT22;400;53.550;9.932;2023-06-05T14:52:15;24.30;77.80
837;DHT22;400;53.550;9.932;2023-06-05T14:54:42;24.30;77.00
837;DHT22;400;53.550;9.932;2023-06-05T14:57:10;24.40;75.70
837;DHT22;400;53.550;9.932;2023-06-05T14:59:40;24.40;75.00
837;DHT22;400;53.550;9.932;2023-06-05T15:02:12;24.40;74.10
837;DHT22;400;53.550;9.932;2023-06-05T15:04:39;24.60;74.30
837;DHT22;400;53.550;9.932;2023-06-05T15:07:08;24.60;73.60
837;DHT22;400;53.550;9.932;2023-06-05T15:09:39;24.50;73.60
837;DHT22;400;53.550;9.932;2023-06-05T15:12:09;24.60;73.90
837;DHT22;400;53.550;9.932;2023-06-05T15:14:40;24.60;76.30
837;DHT22;400;53.550;9.932;2023-06-05T15:17:13;24.80;76.10
837;DHT22;400;53.550;9.932;2023-06-05T15:19:42;24.90;74.50
837;DHT22;400;53.550;9.932;2023-06-05T15:22:10;24.90;75.00
837;DHT22;400;53.550;9.932;2023-06-05T15:24:37;24.90;74.70
837;DHT22;400;53.550;9.932;2023-06-05T15:27:05;25.00;74.60
837;DHT22;400;53.550;9.932;2023-06-05T15:29:35;25.10;74.50
837;DHT22;400;53.550;9.932;2023-06-05T15:32:06;25.20;74.20
837;DHT22;400;53.550;9.932;2023-06-05T15:34:34;25.00;74.00
837;DHT22;400;53.550;9.932;2023-06-05T15:37:05;25.10;74.80
837;DHT22;400;53.550;9.932;2023-06-05T15:39:32;25.10;74.30
837;DHT22;400;53.550;9.932;2023-06-05T15:41:59;25.10;75.70
837;DHT22;400;53.550;9.932;2023-06-05T15:44:26;25.10;76.30
837;DHT22;400;53.550;9.932;2023-06-05T15:46:53;25.00;76.80
837;DHT22;400;53.550;9.932;2023-06-05T15:49:22;25.00;76.80
837;DHT22;400;53.550;9.932;2023-06-05T15:51:53;25.00;76.70
837;DHT22;400;53.550;9.932;2023-06-05T15:54:21;25.10;76.60
837;DHT22;400;53.550;9.932;2023-06-05T15:57:01;25.10;76.70
837;DHT22;400;53.550;9.932;2023-06-05T15:59:29;25.10;76.70
837;DHT22;400;53.550;9.932;2023-06-05T16:01:56;25.00;76.40
837;DHT22;400;53.550;9.932;2023-06-05T16:04:24;25.00;76.50
837;DHT22;400;53.550;9.932;2023-06-05T16:06:56;24.90;76.80
837;DHT22;400;53.550;9.932;2023-06-05T16:09:27;24.80;76.90
837;DHT22;400;53.550;9.932;2023-06-05T16:11:54;24.80;77.20
837;DHT22;400;53.550;9.932;2023-06-05T16:14:22;24.80;77.10
837;DHT22;400;53.550;9.932;2023-06-05T16:16:50;24.60;77.30
837;DHT22;400;53.550;9.932;2023-06-05T16:19:19;24.60;77.60
837;DHT22;400;53.550;9.932;2023-06-05T16:21:46;24.50;78.20
837;DHT22;400;53.550;9.932;2023-06-05T16:24:15;24.60;78.00
837;DHT22;400;53.550;9.932;2023-06-05T16:26:42;24.50;77.50
837;DHT22;400;53.550;9.932;2023-06-05T16:29:11;24.50;77.30
837;DHT22;400;53.550;9.932;2023-06-05T16:31:39;24.60;77.90
837;DHT22;400;53.550;9.932;2023-06-05T16:34:11;25.80;75.80
837;DHT22;400;53.550;9.932;2023-06-05T16:36:39;27.20;73.70
837;DHT22;400;53.550;9.932;2023-06-05T16:39:09;28.50;70.00
837;DHT22;400;53.550;9.932;2023-06-05T17:24:07;29.40;66.20
837;DHT22;400;53.550;9.932;2023-06-05T17:36:26;33.00;52.70
837;DHT22;400;53.550;9.932;2023-06-05T17:38:54;32.90;50.70
837;DHT22;400;53.550;9.932;2023-06-05T17:41:24;33.00;51.10
837;DHT22;400;53.550;9.932;2023-06-05T17:43:55;33.00;51.40
837;DHT22;400;53.550;9.932;2023-06-05T17:46:25;33.10;50.80
837;DHT22;400;53.550;9.932;2023-06-05T17:48:52;33.30;50.20
837;DHT22;400;53.550;9.932;2023-06-05T17:51:22;32.90;49.80
837;DHT22;400;53.550;9.932;2023-06-05T17:53:51;32.30;50.00